Time;durP1;ratioP1;P1;durP2;ratioP2;P2;SDS_P1;SDS_P2;PMS_P1;PMS_P2;Temp;Humidity;BMP_temperature;BMP_pressure;BME280_temperature;BME280_humidity;BME280_pressure;Samples;Min_cycle;Max_cycle;Signal;HPM_P1;HPM_P2
2022/04/17 00:02:45;;;;;;;3.72;1.65;;;;;;;5.85;50.85;101197.59;12187907;19;20015;-82
2022/04/17 00:06:47;;;;;;;2.92;1.50;;;;;;;5.77;51.02;101196.81;12216820;19;20015;-82
2022/04/17 00:10:49;;;;;;;3.47;1.35;;;;;;;5.70;51.74;101177.56;12213396;19;20017;-82
2022/04/17 00:14:52;;;;;;;4.45;1.88;;;;;;;5.72;51.60;101176.34;12180968;19;20480;-84
2022/04/17 00:18:54;;;;;;;2.67;1.45;;;;;;;5.68;51.53;101174.16;12208664;19;20007;-82
2022/04/17 00:22:55;;;;;;;3.25;1.45;;;;;;;5.64;51.79;101173.66;12216978;19;20023;-82
2022/04/17 00:26:59;;;;;;;4.18;1.70;;;;;;;5.57;52.10;101172.72;12181605;19;20014;-81
2022/04/17 00:31:07;;;;;;;2.80;1.58;;;;;;;5.51;53.08;101178.91;12196114;19;20071;-81
2022/04/17 00:35:09;;;;;;;3.70;1.52;;;;;;;5.46;52.91;101171.25;12210399;19;20007;-82
2022/04/17 00:39:12;;;;;;;3.83;1.52;;;;;;;5.43;52.65;101160.69;12180991;19;20110;-83
2022/04/17 00:43:40;;;;;;;2.22;1.52;;;;;;;5.37;53.19;101160.56;12213514;19;20029;-83
2022/04/17 00:47:42;;;;;;;1.95;1.33;;;;;;;5.34;52.84;101150.84;12184364;19;20035;-81
2022/04/17 00:51:47;;;;;;;3.65;1.73;;;;;;;5.25;54.24;101146.50;12210580;19;20524;-82
2022/04/17 00:55:49;;;;;;;3.35;1.85;;;;;;;5.24;53.91;101139.34;12202973;19;20504;-81
2022/04/17 00:59:51;;;;;;;2.75;1.52;;;;;;;5.21;53.88;101140.53;12186318;19;20026;-82
2022/04/17 01:03:53;;;;;;;2.77;1.50;;;;;;;5.18;53.70;101135.44;12197663;19;20011;-82
2022/04/17 01:07:55;;;;;;;3.50;1.95;;;;;;;5.15;53.74;101140.44;12211440;19;20093;-83
2022/04/17 01:11:58;;;;;;;3.35;1.80;;;;;;;5.12;55.89;101129.88;12187516;19;20126;-82
2022/04/17 01:16:05;;;;;;;4.00;1.70;;;;;;;5.18;55.65;101123.66;12210226;19;20082;-83
2022/04/17 01:20:08;;;;;;;6.15;1.48;;;;;;;5.16;55.76;101121.09;12206586;19;20033;-81
2022/04/17 01:28:39;;;;;;;3.45;1.60;;;;;;;5.03;56.07;101108.06;12208435;19;20015;-83
2022/04/17 01:32:40;;;;;;;;;;;;;;;5.02;55.67;101109.06;12180065;19;20682;-83
2022/04/17 01:36:46;;;;;;;3.03;1.30;;;;;;;5.01;55.17;101118.31;12201361;19;19919;-81
2022/04/17 01:40:48;;;;;;;4.28;1.70;;;;;;;4.98;54.78;101112.34;12213549;19;20002;-81
2022/04/17 01:44:51;;;;;;;3.03;1.50;;;;;;;4.96;54.55;101118.00;12187656;19;20046;-81
2022/04/17 01:48:52;;;;;;;3.38;1.95;;;;;;;4.95;55.50;101108.09;12204191;19;20073;-82
2022/04/17 01:52:54;;;;;;;3.38;1.40;;;;;;;4.98;55.90;101107.75;12207851;19;20411;-81
2022/04/17 01:56:56;;;;;;;3.13;1.80;;;;;;;5.02;55.52;101102.75;12186396;19;20078;-84
2022/04/17 02:00:58;;;;;;;3.55;1.55;;;;;;;5.03;55.04;101099.84;12189997;19;20066;-82
2022/04/17 02:05:00;;;;;;;3.00;1.60;;;;;;;5.07;55.48;101099.50;12208514;19;20023;-82
2022/04/17 02:09:02;;;;;;;2.08;1.45;;;;;;;5.09;55.21;101097.44;12186067;19;20010;-81
2022/04/17 02:13:04;;;;;;;2.80;1.30;;;;;;;5.08;55.17;101092.97;12206827;19;20440;-81
2022/04/17 02:17:05;;;;;;;2.50;1.55;;;;;;;5.02;55.24;101092.69;12205918;19;20275;-82
2022/04/17 02:21:08;;;;;;;3.28;1.80;;;;;;;5.00;54.55;101092.03;12185648;19;20018;-82
2022/04/17 02:25:09;;;;;;;4.25;1.40;;;;;;;4.96;54.83;101093.41;12209236;19;20020;-81
2022/04/17 02:29:11;;;;;;;2.20;1.40;;;;;;;4.90;54.78;101099.59;12201881;19;20016;-82
2022/04/17 02:33:13;;;;;;;3.75;1.50;;;;;;;4.87;54.81;101099.97;12180498;19;20074;-83
2022/04/17 02:37:14;;;;;;;2.15;1.25;;;;;;;4.77;55.21;101108.41;12202815;19;20027;-83
2022/04/17 02:41:18;;;;;;;4.13;1.58;;;;;;;4.70;56.41;101121.09;12205313;19;20006;-82
2022/04/17 02:45:20;;;;;;;2.63;1.40;;;;;;;4.61;57.00;101121.28;12182294;19;20528;-82
2022/04/17 02:49:22;;;;;;;3.33;2.00;;;;;;;4.49;57.99;101118.97;12204301;19;20793;-80
2022/04/17 02:53:24;;;;;;;3.95;1.50;;;;;;;4.33;58.50;101113.56;12196027;19;20361;-81
2022/04/17 02:57:26;;;;;;;3.50;1.08;;;;;;;4.21;59.92;101124.03;12208515;19;20380;-82
2022/04/17 03:05:48;;;;;;;2.90;1.40;;;;;;;3.98;60.07;101117.63;12182263;19;20467;-81
2022/04/17 03:09:50;;;;;;;2.33;1.60;;;;;;;3.87;61.17;101111.53;12195369;19;20054;-83
2022/04/17 03:13:52;;;;;;;2.45;1.50;;;;;;;3.81;61.14;101103.19;12188830;19;20361;-83
2022/04/17 03:17:54;;;;;;;4.43;1.77;;;;;;;3.74;61.31;101099.44;12172970;19;20010;-83
2022/04/17 03:21:55;;;;;;;4.72;1.88;;;;;;;3.66;62.72;101100.34;12205853;19;20070;-83
2022/04/17 03:25:57;;;;;;;4.85;1.75;;;;;;;3.61;63.35;101102.72;12190547;19;20031;-80
2022/04/17 03:29:59;;;;;;;2.35;1.42;;;;;;;3.57;62.85;101091.31;12175555;19;20010;-82
2022/04/17 03:34:01;;;;;;;1.90;1.50;;;;;;;3.52;63.15;101088.25;12208548;19;20416;-83
2022/04/17 03:38:02;;;;;;;2.13;1.73;;;;;;;3.47;63.58;101087.06;12207398;19;20014;-83
2022/04/17 03:42:05;;;;;;;2.45;1.40;;;;;;;3.37;64.23;101082.66;12185019;19;20010;-83
2022/04/17 03:46:07;;;;;;;6.88;1.95;;;;;;;3.30;64.85;101069.88;12204784;19;20086;-83
2022/04/17 03:50:10;;;;;;;3.55;1.60;;;;;;;3.24;65.19;101079.56;12215936;19;20621;-83
2022/04/17 03:54:12;;;;;;;;;;;;;;;3.16;65.49;101074.16;12178190;19;20027;-80
2022/04/17 03:58:13;;;;;;;3.38;1.73;;;;;;;3.05;66.21;101067.16;12220888;19;19911;-84
2022/04/17 04:02:15;;;;;;;3.83;1.73;;;;;;;2.96;66.36;101066.31;12255283;19;20007;-85
2022/04/17 04:06:21;;;;;;;2.97;1.77;;;;;;;2.91;66.55;101073.28;12218588;19;20010;-83
2022/04/17 04:10:23;;;;;;;4.40;1.98;;;;;;;2.86;67.91;101079.25;12215459;19;20014;-81
2022/04/17 04:14:25;;;;;;;2.95;1.48;;;;;;;2.84;67.65;101086.72;12179441;19;20062;-81
2022/04/17 04:18:26;;;;;;;4.50;2.15;;;;;;;2.84;68.72;101081.28;12204312;19;20476;-80
2022/04/17 04:22:28;;;;;;;6.55;2.22;;;;;;;2.79;68.89;101080.91;12214369;19;20492;-82
2022/04/17 04:26:31;;;;;;;3.45;1.70;;;;;;;2.80;68.98;101084.53;12178867;19;20730;-83
2022/04/17 04:30:33;;;;;;;2.50;1.63;;;;;;;2.79;69.51;101089.09;12203347;19;20479;-84
2022/04/17 04:34:35;;;;;;;3.60;1.70;;;;;;;2.76;69.29;101086.69;12202923;19;20345;-84
2022/04/17 04:38:39;;;;;;;3.95;2.20;;;;;;;2.77;69.90;101082.09;12177024;19;20636;-83
2022/04/17 04:42:41;;;;;;;2.42;1.77;;;;;;;2.76;70.23;101086.69;12204041;19;20014;-82
2022/04/17 04:46:43;;;;;;;3.08;1.48;;;;;;;2.77;70.03;101079.38;12202580;19;20023;-82
2022/04/17 04:50:45;;;;;;;3.30;1.90;;;;;;;2.76;71.75;101077.69;12192342;19;20074;-82
2022/04/17 04:54:46;;;;;;;3.05;1.88;;;;;;;2.76;70.61;101080.41;12208858;19;20014;-83
2022/04/17 04:58:48;;;;;;;3.70;2.20;;;;;;;2.74;70.63;101080.59;12202187;19;20314;-80
2022/04/17 05:02:50;;;;;;;2.35;1.70;;;;;;;2.76;71.68;101083.13;12175026;19;20073;-82
2022/04/17 05:06:51;;;;;;;5.45;2.05;;;;;;;2.81;71.98;101080.75;12200765;19;20073;-83
2022/04/17 05:10:53;;;;;;;3.17;1.60;;;;;;;2.79;72.96;101089.09;12198443;19;20082;-83
2022/04/17 05:14:55;;;;;;;4.97;1.70;;;;;;;2.78;72.68;101087.41;12182478;19;20098;-83
2022/04/17 05:19:19;;;;;;;4.45;2.15;;;;;;;2.78;73.07;101081.09;12200416;19;20027;-82
2022/04/17 05:23:21;;;;;;;4.07;2.20;;;;;;;2.82;72.82;101088.75;12213221;19;20014;-82
2022/04/17 05:27:23;;;;;;;3.45;2.00;;;;;;;2.86;73.47;101092.00;12168929;19;20429;-81
2022/04/17 05:31:26;;;;;;;6.80;2.00;;;;;;;2.88;73.42;101089.94;12210452;19;20405;-82
2022/04/17 05:35:28;;;;;;;6.40;2.00;;;;;;;2.90;73.26;101098.81;12177338;19;20018;-82
2022/04/17 05:39:30;;;;;;;3.00;1.90;;;;;;;2.97;72.74;101102.53;12199090;19;20537;-82
2022/04/17 05:43:31;;;;;;;2.92;1.80;;;;;;;3.02;72.94;101108.34;12203503;19;20110;-82
2022/04/17 05:47:34;;;;;;;3.72;1.80;;;;;;;3.07;73.30;101105.97;12185843;19;20010;-82
2022/04/17 05:51:36;;;;;;;3.35;1.60;;;;;;;3.11;72.31;101104.59;12203722;19;20032;-82
2022/04/17 05:55:39;;;;;;;4.87;1.97;;;;;;;3.15;73.52;101102.38;12197752;19;20007;-83
2022/04/17 05:59:41;;;;;;;;;;;;;;;3.22;74.06;101108.88;12180441;19;20003;-84
2022/04/17 06:03:43;;;;;;;2.65;1.70;;;;;;;3.28;72.93;101097.28;12196843;19;20568;-83
2022/04/17 06:07:44;;;;;;;3.35;1.73;;;;;;;3.40;72.67;101100.53;12195269;19;20065;-83
2022/04/17 06:11:47;;;;;;;5.25;2.33;;;;;;;3.50;72.53;101094.88;12183650;19;20019;-82
2022/04/17 06:15:48;;;;;;;4.93;2.13;;;;;;;3.60;71.79;101090.13;12192452;19;20116;-80
2022/04/17 06:19:50;;;;;;;3.53;1.80;;;;;;;3.76;71.69;101089.22;12203792;19;20006;-83
2022/04/17 06:23:52;;;;;;;3.78;2.13;;;;;;;3.92;71.07;101080.13;12173541;19;20006;-82
2022/04/17 06:27:56;;;;;;;2.88;1.85;;;;;;;4.11;70.96;101077.88;12192520;19;20032;-82
2022/04/17 06:32:01;;;;;;;3.20;2.13;;;;;;;4.34;69.93;101082.53;12203730;19;20019;-82
2022/04/17 06:36:03;;;;;;;3.47;2.40;;;;;;;4.67;68.18;101071.41;12161546;19;20042;-83
2022/04/17 06:40:05;;;;;;;4.70;2.30;;;;;;;4.97;66.84;101075.16;12198003;19;20074;-83
2022/04/17 06:44:07;;;;;;;2.92;1.95;;;;;;;5.27;65.87;101075.25;12204421;19;20022;-83
2022/04/17 06:48:22;;;;;;;4.70;2.03;;;;;;;5.54;65.30;101069.19;12183440;19;20078;-84
2022/04/17 06:52:24;;;;;;;3.47;2.58;;;;;;;5.85;64.26;101066.28;12215879;19;20045;-83
2022/04/17 06:56:25;;;;;;;3.20;1.80;;;;;;;6.12;63.34;101063.94;12184180;19;20019;-81
2022/04/17 07:00:28;;;;;;;2.67;2.08;;;;;;;6.38;62.32;101066.19;12207557;19;20027;-81
2022/04/17 07:04:29;;;;;;;5.68;2.30;;;;;;;6.63;60.09;101058.47;12203918;19;20094;-83
2022/04/17 07:08:31;;;;;;;3.60;2.33;;;;;;;6.92;60.36;101065.72;12171818;19;20015;-82
2022/04/17 07:12:34;;;;;;;5.60;2.25;;;;;;;7.18;59.10;101056.06;12208195;19;20010;-83
2022/04/17 07:16:39;;;;;;;3.17;2.42;;;;;;;7.43;58.43;101054.59;12195410;19;20495;-83
2022/04/17 07:20:41;;;;;;;4.18;2.28;;;;;;;7.67;57.51;101045.06;12182001;19;20171;-83
2022/04/17 07:24:43;;;;;;;4.25;2.50;;;;;;;7.88;56.68;101035.06;12203981;19;20527;-82
2022/04/17 07:28:46;;;;;;;4.60;2.10;;;;;;;8.19;56.42;101037.34;12211133;19;20011;-83
2022/04/17 07:32:50;;;;;;;4.93;2.17;;;;;;;8.36;55.83;101038.69;12179623;19;20006;-82
2022/04/17 07:36:52;;;;;;;4.10;2.28;;;;;;;8.63;54.80;101034.16;12209402;19;20028;-83
2022/04/17 07:40:54;;;;;;;3.17;2.03;;;;;;;8.89;54.60;101036.13;12207992;19;20023;-83
2022/04/17 07:44:55;;;;;;;5.05;2.67;;;;;;;9.08;52.58;101030.84;12168974;19;20015;-83
2022/04/17 07:48:57;;;;;;;4.35;2.50;;;;;;;9.25;52.84;101017.50;12212054;19;20018;-85
2022/04/17 07:53:00;;;;;;;7.55;2.33;;;;;;;9.47;52.11;101013.50;12207340;19;20018;-83
2022/04/17 07:57:02;;;;;;;4.85;2.40;;;;;;;9.49;51.26;101005.03;12177274;19;20369;-82
2022/04/17 08:01:11;;;;;;;3.03;2.03;;;;;;;9.74;51.49;101006.03;12200348;19;19999;-84
2022/04/17 08:05:13;;;;;;;3.78;2.08;;;;;;;10.07;50.65;101002.34;12209896;19;20018;-83
2022/04/17 08:09:16;;;;;;;3.15;2.03;;;;;;;10.33;50.45;101004.19;12178972;19;20006;-84
2022/04/17 08:13:18;;;;;;;4.50;1.95;;;;;;;10.53;49.67;101000.47;12215087;19;20010;-84
2022/04/17 08:17:23;;;;;;;4.07;2.28;;;;;;;10.68;48.89;101010.13;12187303;19;20497;-84
2022/04/17 08:21:24;;;;;;;4.88;2.30;;;;;;;10.82;48.62;100999.84;12218148;19;20465;-85
2022/04/17 08:25:26;;;;;;;4.70;2.40;;;;;;;11.02;47.91;101004.41;12211912;19;20014;-84
2022/04/17 08:29:30;;;;;;;7.72;2.60;;;;;;;11.32;47.69;100993.53;12183011;19;20657;-84
2022/04/17 08:33:32;;;;;;;4.75;2.75;;;;;;;11.51;47.02;100995.28;12205759;19;20010;-84
2022/04/17 08:37:35;;;;;;;;;;;;;;;11.66;46.20;101005.09;12201983;19;20006;-84
2022/04/17 08:41:39;;;;;;;3.88;2.30;;;;;;;11.63;46.02;100973.28;12183613;19;19911;-83
2022/04/17 08:45:41;;;;;;;4.45;2.22;;;;;;;11.82;45.68;100988.78;12204992;19;20094;-84
2022/04/17 08:49:44;;;;;;;4.18;2.13;;;;;;;11.88;44.54;100980.69;12204129;19;20034;-84
2022/04/17 08:53:48;;;;;;;4.00;1.95;;;;;;;12.01;44.25;100980.53;12179053;19;20023;-84
2022/04/17 08:57:50;;;;;;;5.10;2.10;;;;;;;12.32;43.18;100966.53;12195197;19;20011;-83
2022/04/17 09:01:52;;;;;;;3.15;1.77;;;;;;;12.53;42.67;100967.09;12214256;19;20488;-82
2022/04/17 09:05:54;;;;;;;4.07;1.75;;;;;;;12.76;42.48;100960.81;12195031;19;20088;-85
2022/04/17 09:09:56;;;;;;;4.07;1.67;;;;;;;12.94;41.71;100943.28;12218995;19;20726;-83
2022/04/17 09:14:02;;;;;;;3.13;2.03;;;;;;;13.19;40.88;100932.00;12207824;19;20275;-83
2022/04/17 09:18:08;;;;;;;3.70;1.83;;;;;;;13.44;39.49;100937.31;12178808;19;20606;-82
2022/04/17 09:22:16;;;;;;;3.45;1.90;;;;;;;13.57;38.56;100928.78;12217612;19;20381;-83
2022/04/17 09:26:24;;;;;;;2.58;1.63;;;;;;;13.79;38.54;100942.81;12206543;19;20003;-79
2022/04/17 09:30:39;;;;;;;6.13;1.60;;;;;;;14.00;37.96;100940.50;12185578;19;20010;-82
2022/04/17 09:34:50;;;;;;;2.63;1.15;;;;;;;13.96;37.25;100942.91;12209472;19;20022;-81
2022/04/17 09:39:09;;;;;;;4.05;1.60;;;;;;;14.14;36.70;100948.28;12185700;19;20018;-82
2022/04/17 09:43:18;;;;;;;2.88;1.85;;;;;;;14.22;35.57;100937.88;12207397;19;20031;-82
2022/04/17 09:47:26;;;;;;;2.42;1.35;;;;;;;14.40;35.78;100921.06;12192977;19;20538;-83
2022/04/17 09:51:33;;;;;;;5.93;1.60;;;;;;;14.63;35.95;100908.19;12213553;19;20006;-82
2022/04/17 09:55:38;;;;;;;3.38;1.40;;;;;;;14.97;36.69;100909.91;12207091;19;20539;-81
2022/04/17 09:59:40;;;;;;;3.75;2.00;;;;;;;15.18;35.05;100904.69;12180374;19;20017;-82
2022/04/17 10:03:42;;;;;;;3.42;1.35;;;;;;;15.08;34.53;100901.72;12208528;19;20023;-83
2022/04/17 10:07:48;;;;;;;3.42;1.60;;;;;;;15.35;34.55;100887.97;12199979;19;20018;-85
2022/04/17 10:11:56;;;;;;;3.30;1.38;;;;;;;15.34;34.01;100881.59;12182423;19;20107;-86
2022/04/17 10:16:00;;;;;;;4.45;1.45;;;;;;;15.25;33.37;100881.19;12197155;19;20484;-84
2022/04/17 10:20:08;;;;;;;2.35;1.35;;;;;;;15.03;33.76;100869.19;12208301;19;20014;-82
2022/04/17 10:24:12;;;;;;;3.15;1.73;;;;;;;15.21;33.84;100865.31;12193495;19;20018;-82
2022/04/17 10:28:16;;;;;;;2.20;1.13;;;;;;;15.43;32.58;100857.84;12221030;19;20137;-82
2022/04/17 10:32:27;;;;;;;4.10;1.73;;;;;;;15.66;32.54;100839.25;12207639;19;20371;-81
2022/04/17 10:36:56;;;;;;;2.63;1.45;;;;;;;16.00;33.00;100833.56;12184317;19;20368;-81
2022/04/17 10:41:06;;;;;;;4.20;1.40;;;;;;;16.05;31.72;100814.16;12206523;19;20023;-80
2022/04/17 10:45:08;;;;;;;4.25;1.50;;;;;;;16.04;30.51;100818.88;12187097;19;20094;-82
2022/04/17 10:49:10;;;;;;;3.35;1.30;;;;;;;16.31;31.08;100826.38;12202804;19;20081;-82
2022/04/17 10:53:26;;;;;;;2.50;1.33;;;;;;;16.00;31.63;100823.28;12205119;19;20022;-83
2022/04/17 10:57:27;;;;;;;2.63;1.40;;;;;;;16.26;31.27;100804.91;12181259;19;20014;-82
2022/04/17 11:01:45;;;;;;;2.40;1.20;;;;;;;16.58;30.66;100790.19;12206290;19;20017;-81
2022/04/17 11:10:17;;;;;;;3.35;1.30;;;;;;;16.73;30.17;100793.09;12199645;19;20037;-82
2022/04/17 11:14:22;;;;;;;3.00;1.13;;;;;;;16.99;29.56;100784.94;12196746;19;20016;-81
2022/04/17 11:18:27;;;;;;;3.45;1.48;;;;;;;17.24;29.80;100782.28;12180600;19;20022;-78
2022/04/17 11:22:34;;;;;;;3.38;1.30;;;;;;;17.42;28.82;100780.97;12204601;19;20014;-82
2022/04/17 11:26:52;;;;;;;5.20;1.45;;;;;;;17.23;28.34;100765.88;12183793;19;20472;-82
2022/04/17 11:30:57;;;;;;;3.85;2.42;;;;;;;17.20;29.12;100767.25;12192073;19;20011;-80
2022/04/17 11:35:04;;;;;;;2.53;1.30;;;;;;;17.50;29.19;100762.91;12197803;19;20010;-81
2022/04/17 11:39:06;;;;;;;2.65;1.27;;;;;;;18.01;29.25;100751.09;12171852;19;20030;-81
2022/04/17 11:43:12;;;;;;;2.67;1.45;;;;;;;18.26;27.81;100753.06;12189420;19;20023;-81
2022/04/17 11:47:15;;;;;;;2.22;1.30;;;;;;;18.44;28.77;100749.72;12194285;19;20002;-82
2022/04/17 11:51:20;;;;;;;3.22;1.30;;;;;;;19.00;28.11;100735.69;12176881;19;20482;-82
2022/04/17 11:55:24;;;;;;;3.50;1.23;;;;;;;19.72;27.71;100746.59;12217275;19;20003;-81
2022/04/17 11:59:27;;;;;;;2.10;1.20;;;;;;;20.48;26.79;100723.66;12181451;19;20015;-81
2022/04/17 12:03:36;;;;;;;3.00;1.20;;;;;;;20.80;26.46;100719.47;12215315;19;20062;-83
2022/04/17 12:07:38;;;;;;;5.43;1.33;;;;;;;21.08;24.52;100708.53;12216093;19;20002;-82
2022/04/17 12:11:40;;;;;;;2.67;0.97;;;;;;;21.20;23.00;100708.09;12201501;19;20021;-81
2022/04/17 12:15:43;;;;;;;4.40;1.80;;;;;;;21.07;22.98;100709.66;12232974;19;20761;-81
2022/04/17 12:19:49;;;;;;;2.97;1.33;;;;;;;21.65;23.62;100708.66;12234276;19;20022;-82
2022/04/17 12:23:53;;;;;;;2.17;1.20;;;;;;;21.58;22.29;100709.03;12208276;19;20030;-81
2022/04/17 12:27:55;;;;;;;3.15;1.30;;;;;;;22.13;22.12;100686.03;12217838;19;20014;-82
2022/04/17 12:31:57;;;;;;;2.80;1.55;;;;;;;22.63;22.80;100686.31;12212155;19;20019;-82
2022/04/17 12:36:11;;;;;;;1.98;1.13;;;;;;;23.05;21.94;100673.16;12192037;19;20010;-85
2022/04/17 12:40:21;;;;;;;2.65;1.35;;;;;;;23.27;20.72;100670.44;12207536;19;20006;-83
2022/04/17 12:44:34;;;;;;;5.43;1.48;;;;;;;23.63;21.39;100664.84;12198977;19;20027;-83
2022/04/17 12:48:39;;;;;;;2.33;1.25;;;;;;;24.20;20.55;100644.63;12214844;19;20050;-82
2022/04/17 12:52:41;;;;;;;3.95;1.33;;;;;;;24.63;20.08;100646.03;12220872;19;20383;-82
2022/04/17 12:56:43;;;;;;;5.65;1.35;;;;;;;24.74;19.89;100641.78;12191725;19;20018;-82
2022/04/17 13:00:55;;;;;;;2.60;1.42;;;;;;;24.68;18.61;100629.00;12222155;19;20011;-84
2022/04/17 13:05:01;;;;;;;2.70;1.30;;;;;;;24.72;19.26;100624.41;12219506;19;20113;-82
2022/04/17 13:09:05;;;;;;;1.60;1.20;;;;;;;25.33;19.30;100622.59;12184014;19;20014;-84
2022/04/17 13:13:07;;;;;;;3.13;1.40;;;;;;;25.60;19.00;100606.50;12212892;19;20015;-84
2022/04/17 13:17:09;;;;;;;;;;;;;;;26.06;18.78;100610.69;12212992;19;20011;-82
2022/04/17 13:21:12;;;;;;;2.80;1.20;;;;;;;25.57;18.82;100601.53;12189558;19;19922;-81
2022/04/17 13:25:19;;;;;;;1.77;1.20;;;;;;;26.31;18.13;100600.47;12215961;19;20019;-81
2022/04/17 13:29:22;;;;;;;2.05;1.40;;;;;;;26.78;17.31;100575.88;12202581;19;20010;-84
2022/04/17 13:33:25;;;;;;;4.32;1.55;;;;;;;27.24;17.88;100587.41;12208968;19;20010;-82
2022/04/17 13:41:47;;;;;;;2.00;1.50;;;;;;;27.86;16.77;100563.94;12184127;19;20010;-81
2022/04/17 13:45:49;;;;;;;2.45;1.48;;;;;;;27.57;16.58;100558.38;12212716;19;20007;-84
2022/04/17 13:49:50;;;;;;;;;;;;;;;26.84;16.61;100561.53;12216307;19;20536;-78
2022/04/17 13:53:52;;;;;;;3.28;1.80;;;;;;;27.22;16.82;100547.34;12183559;19;19915;-82
2022/04/17 13:57:54;;;;;;;;;;;;;;;26.28;17.73;100545.47;12202660;19;20360;-82
2022/04/17 14:01:56;;;;;;;3.30;1.45;;;;;;;24.00;18.84;100524.91;12207647;19;19911;-83
2022/04/17 14:05:59;;;;;;;3.95;1.15;;;;;;;23.21;19.15;100525.50;12183488;19;20467;-81
2022/04/17 14:10:01;;;;;;;3.20;1.20;;;;;;;21.90;19.86;100527.88;12205981;19;20454;-82
2022/04/17 14:14:03;;;;;;;1.90;1.27;;;;;;;20.98;20.64;100512.53;12203568;19;20007;-82
2022/04/17 14:18:05;;;;;;;2.60;1.80;;;;;;;20.70;20.62;100490.78;12175205;19;20003;-78
2022/04/17 14:22:07;;;;;;;1.83;1.00;;;;;;;20.22;22.01;100492.75;12201072;19;20379;-82
2022/04/17 14:26:09;;;;;;;3.05;1.10;;;;;;;20.04;21.53;100486.78;12204532;19;20018;-82
2022/04/17 14:30:11;;;;;;;2.30;1.20;;;;;;;19.82;21.42;100482.84;12180855;19;20390;-82
2022/04/17 14:34:12;;;;;;;3.25;1.02;;;;;;;20.31;20.71;100484.53;12201961;19;20018;-81
2022/04/17 14:38:14;;;;;;;1.98;1.27;;;;;;;20.00;21.04;100474.53;12203206;19;20055;-81
2022/04/17 14:42:20;;;;;;;3.90;1.60;;;;;;;19.96;21.13;100467.88;12176943;19;20006;-81
2022/04/17 14:46:21;;;;;;;3.38;1.13;;;;;;;19.63;21.53;100461.19;12193958;19;20130;-80
2022/04/17 14:50:24;;;;;;;5.50;1.20;;;;;;;19.56;22.12;100450.34;12182568;19;20014;-80
2022/04/17 14:54:25;;;;;;;5.20;1.27;;;;;;;19.76;21.05;100443.75;12201274;19;20007;-82
2022/04/17 14:58:27;;;;;;;2.80;1.40;;;;;;;20.45;21.68;100435.91;12198622;19;20066;-82
2022/04/17 15:02:30;;;;;;;1.75;1.08;;;;;;;20.00;21.13;100426.16;12185244;19;20014;-82
2022/04/17 15:06:32;;;;;;;3.47;1.13;;;;;;;19.37;21.40;100429.03;12191978;19;20110;-82
2022/04/17 15:10:36;;;;;;;;;;;;;;;18.83;21.67;100414.94;12211505;19;20002;-84
2022/04/17 15:14:39;;;;;;;1.95;1.02;;;;;;;18.78;21.94;100416.94;12187882;19;20325;-82
2022/04/17 15:18:40;;;;;;;2.13;1.08;;;;;;;18.68;21.25;100407.47;12207102;19;20007;-82
2022/04/17 15:22:42;;;;;;;1.55;1.00;;;;;;;18.44;21.35;100414.84;12215772;19;20070;-80
2022/04/17 15:26:44;;;;;;;2.10;1.30;;;;;;;18.36;21.95;100407.09;12181910;19;20620;-81
2022/04/17 15:30:46;;;;;;;2.05;1.08;;;;;;;18.11;21.95;100399.69;12208555;19;20042;-80
2022/04/17 15:34:48;;;;;;;1.77;1.00;;;;;;;17.98;22.04;100396.38;12220976;19;20006;-83
2022/04/17 15:38:50;;;;;;;9.20;1.88;;;;;;;17.85;21.89;100385.03;12186280;19;20011;-79
2022/04/17 15:42:53;;;;;;;1.52;0.93;;;;;;;17.73;21.66;100393.69;12214094;19;20006;-83
2022/04/17 15:51:17;;;;;;;5.10;1.38;;;;;;;17.57;21.63;100395.66;12197401;19;19907;-83
2022/04/17 15:55:20;;;;;;;3.65;1.52;;;;;;;17.70;21.24;100386.72;12206864;19;20010;-79
2022/04/17 15:59:25;;;;;;;3.67;1.08;;;;;;;17.95;21.53;100379.41;12180092;19;20471;-81
2022/04/17 16:03:28;;;;;;;1.38;1.05;;;;;;;18.44;21.21;100373.00;12212054;19;20011;-83
2022/04/17 16:07:30;;;;;;;;;;;;;;;18.38;21.00;100371.34;12221241;19;20007;-83
2022/04/17 16:11:32;;;;;;;3.00;1.27;;;;;;;18.20;21.17;100365.34;12195061;19;19919;-83
2022/04/17 16:15:34;;;;;;;3.45;1.20;;;;;;;18.31;21.37;100365.28;12217845;19;20021;-83
2022/04/17 16:19:36;;;;;;;4.13;1.77;;;;;;;18.95;21.88;100353.13;12234176;19;20007;-82
2022/04/17 16:23:38;;;;;;;2.13;0.90;;;;;;;19.80;20.67;100340.53;12236160;19;20010;-81
2022/04/17 16:27:43;;;;;;;2.38;1.10;;;;;;;20.25;19.47;100350.25;12249833;19;20017;-81
2022/04/17 16:31:45;;;;;;;1.92;1.60;;;;;;;20.25;19.82;100339.06;12231265;19;20017;-83
2022/04/17 16:35:47;;;;;;;2.70;1.30;;;;;;;19.88;19.45;100341.84;12197548;19;20024;-82
2022/04/17 16:39:48;;;;;;;3.47;1.95;;;;;;;19.27;19.84;100338.56;12210591;19;20105;-81
2022/04/17 16:43:50;;;;;;;7.53;4.30;;;;;;;19.35;19.89;100334.31;12214328;19;20014;-82
2022/04/17 16:47:52;;;;;;;8.40;4.47;;;;;;;19.22;19.79;100346.19;12192942;19;20018;-82
2022/04/17 16:51:54;;;;;;;32.85;22.70;;;;;;;19.22;20.21;100340.59;12216267;19;20028;-81
2022/04/17 16:55:57;;;;;;;5.78;2.88;;;;;;;19.19;20.36;100339.22;12209812;19;20011;-80
2022/04/17 16:59:58;;;;;;;3.50;2.05;;;;;;;18.91;20.47;100335.28;12186678;19;20062;-82
2022/04/17 17:04:07;;;;;;;120.63;81.70;;;;;;;18.49;21.09;100328.31;12219161;19;20007;-82
2022/04/17 17:08:09;;;;;;;28.10;18.88;;;;;;;18.43;21.37;100329.47;12214782;19;20006;-83
2022/04/17 17:12:10;;;;;;;5.00;2.80;;;;;;;18.45;21.71;100325.28;12200493;19;20021;-81
2022/04/17 17:16:12;;;;;;;3.72;1.27;;;;;;;18.22;21.64;100326.81;12210683;19;20010;-82
2022/04/17 17:20:18;;;;;;;1.85;1.02;;;;;;;18.22;21.99;100328.78;12222455;19;20456;-82
2022/04/17 17:24:25;;;;;;;3.47;1.15;;;;;;;18.01;21.48;100328.06;12189929;19;20624;-81
2022/04/17 17:28:29;;;;;;;3.05;1.23;;;;;;;17.84;21.86;100331.19;12210418;19;20022;-81
2022/04/17 17:32:31;;;;;;;3.08;0.90;;;;;;;17.51;21.87;100324.34;12189972;19;20006;-81
2022/04/17 17:36:34;;;;;;;1.65;0.90;;;;;;;17.21;21.81;100326.06;12209335;19;20007;-81
2022/04/17 17:40:37;;;;;;;;;;;;;;;17.21;22.14;100333.59;12211118;19;20018;-82
2022/04/17 17:44:39;;;;;;;4.22;1.00;;;;;;;18.09;23.02;100321.88;12184181;19;19922;-81
2022/04/17 17:48:40;;;;;;;2.92;0.80;;;;;;;18.48;22.79;100320.25;12208053;19;20038;-80
2022/04/17 17:52:49;;;;;;;1.50;0.80;;;;;;;18.77;23.05;100323.09;12210529;19;20011;-81
2022/04/17 17:56:52;;;;;;;3.20;1.08;;;;;;;18.39;24.32;100320.88;12191477;19;20007;-82
2022/04/17 18:00:58;;;;;;;2.40;1.27;;;;;;;17.56;25.71;100327.09;12208387;19;20014;-82
2022/04/17 18:05:00;;;;;;;5.32;1.08;;;;;;;16.74;26.59;100327.19;12206763;19;20006;-81
2022/04/17 18:17:46;;;;;;;1.40;1.10;;;;;;;14.70;29.78;100332.72;12180289;19;20041;-81
2022/04/17 18:21:48;;;;;;;5.70;1.00;;;;;;;14.24;30.75;100334.19;12217457;19;20014;-81
2022/04/17 18:25:53;;;;;;;1.95;0.82;;;;;;;13.81;31.06;100335.94;12211886;19;20003;-81
2022/04/17 18:29:55;;;;;;;3.75;1.20;;;;;;;13.40;31.49;100338.16;12192123;19;20021;-79
2022/04/17 18:33:57;;;;;;;2.70;1.45;;;;;;;13.03;32.24;100341.47;12215105;19;20390;-81
2022/04/17 18:37:59;;;;;;;2.08;1.30;;;;;;;12.73;32.53;100345.44;12214302;19;20094;-81
2022/04/17 18:42:02;;;;;;;4.40;1.77;;;;;;;12.45;33.08;100345.47;12185082;19;20017;-81
2022/04/17 18:46:03;;;;;;;3.63;1.55;;;;;;;12.17;33.53;100344.44;12233535;19;20011;-79
2022/04/17 18:50:06;;;;;;;7.07;3.80;;;;;;;11.94;34.17;100350.03;12242754;19;20002;-80
2022/04/17 18:54:08;;;;;;;4.68;2.17;;;;;;;11.70;34.66;100355.59;12219032;19;20010;-81
2022/04/17 18:58:13;;;;;;;2.58;1.50;;;;;;;11.51;35.09;100365.97;12239498;19;20033;-79
2022/04/17 19:02:16;;;;;;;3.08;1.70;;;;;;;11.31;35.22;100363.59;12244549;19;20014;-79
2022/04/17 19:06:18;;;;;;;4.33;1.40;;;;;;;11.14;36.60;100362.63;12222315;19;20075;-81
2022/04/17 19:10:20;;;;;;;6.13;2.25;;;;;;;10.97;37.28;100351.47;12246236;19;20007;-80
2022/04/17 19:14:27;;;;;;;4.88;2.70;;;;;;;10.83;37.25;100361.91;12226045;19;20017;-80
2022/04/17 19:18:29;;;;;;;4.97;2.38;;;;;;;10.69;37.16;100357.69;12247913;19;20041;-82